createdAt,value
2023-04-16T00:03:15.101Z,6.70
2023-04-16T00:08:20.236Z,6.70
2023-04-16T00:13:23.830Z,6.70
2023-04-16T00:18:27.804Z,6.70
2023-04-16T00:23:32.553Z,6.70
2023-04-16T00:28:36.508Z,6.70
2023-04-16T00:33:45.965Z,6.70
2023-04-16T00:38:51.199Z,6.70
2023-04-16T00:43:54.545Z,6.60
2023-04-16T00:48:58.685Z,6.60
2023-04-16T00:54:05.226Z,6.60
2023-04-16T00:59:08.848Z,6.60
2023-04-16T01:04:12.956Z,6.60
2023-04-16T01:09:18.726Z,6.60
2023-04-16T01:14:22.292Z,6.60
2023-04-16T01:19:25.607Z,6.60
2023-04-16T01:24:31.326Z,6.60
2023-04-16T01:29:35.193Z,6.60
2023-04-16T01:34:38.584Z,6.70
2023-04-16T01:39:43.414Z,6.60
2023-04-16T01:44:48.860Z,6.60
2023-04-16T01:49:54.946Z,6.60
2023-04-16T02:00:27.008Z,6.60
2023-04-16T02:05:30.646Z,6.60
2023-04-16T02:10:36.405Z,6.60
2023-04-16T02:15:39.853Z,6.60
2023-04-16T02:20:43.437Z,6.60
2023-04-16T02:25:49.629Z,6.60
2023-04-16T02:30:53.032Z,6.60
2023-04-16T02:35:56.354Z,6.60
2023-04-16T02:41:01.461Z,6.60
2023-04-16T02:46:05.092Z,6.60
2023-04-16T02:51:08.456Z,6.60
2023-04-16T02:56:13.533Z,6.50
2023-04-16T03:01:18.303Z,6.60
2023-04-16T03:06:21.814Z,6.50
2023-04-16T03:11:26.868Z,6.50
2023-04-16T03:16:31.791Z,6.50
2023-04-16T03:21:37.253Z,6.50
2023-04-16T03:26:43.218Z,6.50
2023-04-16T03:31:48.706Z,6.60
2023-04-16T03:36:52.158Z,6.50
2023-04-16T03:42:00.371Z,6.50
2023-04-16T03:47:05.120Z,6.50
2023-04-16T03:52:11.466Z,6.50
2023-04-16T03:57:16.133Z,6.60
2023-04-16T04:02:19.639Z,6.50
2023-04-16T04:07:23.211Z,6.50
2023-04-16T04:12:27.882Z,6.50
2023-04-16T04:17:31.310Z,6.50
2023-04-16T04:22:35.836Z,6.50
2023-04-16T04:27:40.791Z,6.50
2023-04-16T04:32:44.229Z,6.40
2023-04-16T04:37:49.290Z,6.50
2023-04-16T04:42:54.125Z,6.50
2023-04-16T04:47:57.719Z,6.50
2023-04-16T04:53:01.164Z,6.40
2023-04-16T04:58:06.908Z,6.50
2023-04-16T05:03:14.295Z,6.50
2023-04-16T05:08:17.807Z,6.50
2023-04-16T05:13:22.535Z,6.50
2023-04-16T05:18:25.854Z,6.50
2023-04-16T05:23:32.349Z,6.50
2023-04-16T05:28:36.955Z,6.50
2023-04-16T05:33:41.284Z,6.50
2023-04-16T05:38:44.591Z,6.60
2023-04-16T05:43:49.312Z,6.60
2023-04-16T05:48:53.843Z,6.60
2023-04-16T05:53:58.093Z,6.60
2023-04-16T05:59:03.210Z,6.60
2023-04-16T06:04:07.723Z,6.70
2023-04-16T06:09:12.353Z,6.70
2023-04-16T06:14:17.187Z,6.70
2023-04-16T06:19:20.697Z,6.70
2023-04-16T06:24:24.134Z,6.70
2023-04-16T06:29:40.332Z,6.60
2023-04-16T06:34:44.728Z,6.60
2023-04-16T06:39:48.256Z,6.50
2023-04-16T06:44:53.154Z,6.60
2023-04-16T06:49:56.548Z,6.70
2023-04-16T06:55:00.489Z,6.60
2023-04-16T07:00:06.272Z,6.70
2023-04-16T07:05:10.237Z,6.70
2023-04-16T07:10:14.695Z,6.70
2023-04-16T07:15:19.669Z,6.70
2023-04-16T07:20:24.396Z,6.70
2023-04-16T07:25:27.989Z,6.70
2023-04-16T07:30:34.987Z,6.80
2023-04-16T07:35:38.589Z,6.80
2023-04-16T07:40:43.905Z,6.80
2023-04-16T07:45:48.707Z,6.80
2023-04-16T07:51:19.353Z,7.00
2023-04-16T07:56:22.850Z,7.00
2023-04-16T08:01:27.953Z,7.10
2023-04-16T08:06:31.422Z,7.20
2023-04-16T08:11:34.960Z,7.30
2023-04-16T08:16:40.809Z,7.40
2023-04-16T08:21:48.093Z,7.30
2023-04-16T08:26:51.584Z,7.40
2023-04-16T08:31:56.692Z,7.30
2023-04-16T08:37:00.315Z,7.30
2023-04-16T08:42:06.279Z,7.20
2023-04-16T08:47:13.328Z,7.30
2023-04-16T08:52:20.990Z,7.20
2023-04-16T08:57:31.939Z,7.30
2023-04-16T09:02:38.289Z,7.30
2023-04-16T09:07:43.441Z,7.40
2023-04-16T09:12:47.008Z,7.50
2023-04-16T09:17:53.999Z,7.50
2023-04-16T09:22:59.275Z,7.70
2023-04-16T09:28:02.677Z,7.80
2023-04-16T09:33:22.556Z,8.10
2023-04-16T09:38:27.203Z,8.40
2023-04-16T09:43:31.344Z,8.50
2023-04-16T09:48:36.287Z,8.60
2023-04-16T09:53:39.838Z,8.80
2023-04-16T09:58:43.250Z,8.90
2023-04-16T10:03:51.936Z,8.60
2023-04-16T10:08:57.437Z,8.70
2023-04-16T10:14:02.259Z,8.60
2023-04-16T10:19:09.830Z,8.80
2023-04-16T10:24:18.579Z,9.00
2023-04-16T10:29:23.142Z,8.70
2023-04-16T10:34:29.161Z,8.50
2023-04-16T10:39:34.550Z,8.40
2023-04-16T10:44:38.183Z,8.40
2023-04-16T10:49:44.167Z,8.50
2023-04-16T10:54:49.156Z,8.50
2023-04-16T10:59:52.647Z,8.50
2023-04-16T11:04:58.937Z,8.50
2023-04-16T11:10:05.664Z,8.40
2023-04-16T11:15:11.162Z,8.50
2023-04-16T11:20:20.872Z,8.30
2023-04-16T11:25:27.956Z,8.10
2023-04-16T11:30:35.320Z,8.00
2023-04-16T11:35:41.482Z,7.90
2023-04-16T11:40:44.953Z,7.90
2023-04-16T11:45:58.247Z,8.00
2023-04-16T11:51:03.320Z,8.00
2023-04-16T11:56:07.269Z,8.20
2023-04-16T12:01:11.413Z,8.30
2023-04-16T12:06:16.207Z,8.40
2023-04-16T12:11:19.939Z,8.70
2023-04-16T12:16:27.439Z,8.90
2023-04-16T12:21:42.560Z,8.80
2023-04-16T12:26:47.293Z,9.00
2023-04-16T12:31:54.311Z,9.20
2023-04-16T12:37:11.708Z,9.00
2023-04-16T12:42:15.290Z,9.10
2023-04-16T12:47:24.733Z,9.10
2023-04-16T12:52:31.618Z,9.40
2023-04-16T12:57:35.622Z,9.70
2023-04-16T13:02:41.383Z,9.80
2023-04-16T13:07:47.462Z,9.60
2023-04-16T13:12:51.021Z,9.80
2023-04-16T13:17:54.501Z,9.70
2023-04-16T13:22:59.437Z,9.50
2023-04-16T13:28:03.010Z,9.50
2023-04-16T13:33:06.491Z,9.40
2023-04-16T13:38:12.265Z,9.20
2023-04-16T13:43:17.656Z,9.00
2023-04-16T13:48:22.046Z,9.00
2023-04-16T13:53:27.793Z,9.00
2023-04-16T13:58:31.305Z,9.10
2023-04-16T14:03:36.391Z,9.20
2023-04-16T14:08:41.539Z,9.10
2023-04-16T14:13:44.924Z,9.00
2023-04-16T14:18:49.588Z,8.90
2023-04-16T14:23:55.543Z,8.80
2023-04-16T14:28:59.874Z,8.70
2023-04-16T14:34:03.683Z,8.60
2023-04-16T14:39:09.183Z,8.70
2023-04-16T14:44:13.339Z,8.80
2023-04-16T14:49:18.011Z,8.70
2023-04-16T14:54:24.269Z,8.60
2023-04-16T14:59:31.573Z,8.60
2023-04-16T15:04:35.804Z,8.50
2023-04-16T15:09:40.873Z,8.40
2023-04-16T15:14:44.404Z,8.30
2023-04-16T15:19:47.904Z,8.20
2023-04-16T15:24:54.179Z,8.20
2023-04-16T15:29:57.598Z,8.30
2023-04-16T15:35:01.138Z,8.30
2023-04-16T15:40:12.708Z,8.40
2023-04-16T15:45:18.813Z,8.30
2023-04-16T15:50:22.338Z,8.30
2023-04-16T15:55:27.486Z,8.20
2023-04-16T16:00:32.870Z,8.20
2023-04-16T16:05:36.404Z,8.10
2023-04-16T16:10:41.489Z,8.00
2023-04-16T16:15:48.125Z,8.00
2023-04-16T16:20:53.264Z,8.00
2023-04-16T16:25:58.101Z,8.00
2023-04-16T16:31:02.103Z,8.00
2023-04-16T16:36:06.262Z,8.10
2023-04-16T16:41:15.267Z,8.10
2023-04-16T16:46:18.600Z,8.10
2023-04-16T16:51:22.183Z,8.10
2023-04-16T16:56:26.986Z,8.10
2023-04-16T17:01:31.625Z,8.10
2023-04-16T17:06:35.205Z,8.00
2023-04-16T17:11:40.241Z,8.00
2023-04-16T17:16:46.481Z,7.90
2023-04-16T17:21:50.032Z,7.90
2023-04-16T17:26:57.042Z,7.90
2023-04-16T17:32:00.355Z,7.90
2023-04-16T17:37:04.883Z,7.80
2023-04-16T17:42:09.643Z,7.80
2023-04-16T17:47:12.954Z,7.80
2023-04-16T17:52:16.406Z,7.80
2023-04-16T17:57:21.143Z,7.80
2023-04-16T18:02:25.847Z,7.70
2023-04-16T18:07:29.335Z,7.70
2023-04-16T18:12:34.088Z,7.70
2023-04-16T18:17:37.464Z,7.80
2023-04-16T18:22:41.938Z,7.80
2023-04-16T18:27:48.079Z,7.70
2023-04-16T18:33:25.434Z,7.80
2023-04-16T18:38:23.718Z,7.70
2023-04-16T18:43:29.566Z,7.70
2023-04-16T18:48:37.283Z,7.70
2023-04-16T18:53:46.876Z,7.70
2023-04-16T18:58:53.913Z,7.70
2023-04-16T19:03:59.978Z,7.70
2023-04-16T19:09:03.602Z,7.70
2023-04-16T19:14:08.905Z,7.70
2023-04-16T19:19:15.499Z,7.60
2023-04-16T19:24:20.065Z,7.60
2023-04-16T19:29:29.251Z,7.60
2023-04-16T19:34:35.678Z,7.60
2023-04-16T19:39:39.590Z,7.60
2023-04-16T19:44:54.708Z,7.60
2023-04-16T19:49:58.334Z,7.60
2023-04-16T19:55:05.720Z,7.60
2023-04-16T20:00:17.012Z,7.60
2023-04-16T20:05:22.460Z,7.60
2023-04-16T20:10:28.121Z,7.60
2023-04-16T20:15:32.956Z,7.60
2023-04-16T20:20:38.019Z,7.60
2023-04-16T20:25:45.355Z,7.60
2023-04-16T20:30:54.429Z,7.60
2023-04-16T20:35:58.119Z,7.60
2023-04-16T20:41:10.328Z,7.60
2023-04-16T20:46:16.388Z,7.60
2023-04-16T20:51:19.911Z,7.60
2023-04-16T20:56:23.466Z,7.60
2023-04-16T21:01:28.435Z,7.50
2023-04-16T21:06:38.798Z,7.50
2023-04-16T21:11:43.555Z,7.50
2023-04-16T21:16:52.812Z,7.50
2023-04-16T21:21:57.224Z,7.50
2023-04-16T21:27:01.341Z,7.40
2023-04-16T21:32:07.633Z,7.50
2023-04-16T21:37:18.077Z,7.50
2023-04-16T21:42:24.989Z,7.50
2023-04-16T21:47:29.959Z,7.40
2023-04-16T21:52:33.982Z,7.40
2023-04-16T21:57:43.369Z,7.40
2023-04-16T22:02:48.817Z,7.50
2023-04-16T22:07:54.051Z,7.50
2023-04-16T22:12:57.547Z,7.50
2023-04-16T22:18:06.704Z,7.40
2023-04-16T22:23:10.239Z,7.40
2023-04-16T22:28:13.738Z,7.40
2023-04-16T22:33:18.858Z,7.40
2023-04-16T22:38:22.676Z,7.40
2023-04-16T22:43:35.604Z,7.40
2023-04-16T22:48:40.755Z,7.40
2023-04-16T22:53:46.307Z,7.40
2023-04-16T22:58:53.068Z,7.40
2023-04-16T23:04:00.062Z,7.40
2023-04-16T23:09:05.223Z,7.40
2023-04-16T23:14:10.120Z,7.40
2023-04-16T23:19:15.833Z,7.30
2023-04-16T23:24:21.392Z,7.30
2023-04-16T23:29:26.975Z,7.30
2023-04-16T23:34:32.042Z,7.30
2023-04-16T23:39:35.587Z,7.30
2023-04-16T23:44:40.032Z,7.30
2023-04-16T23:49:47.821Z,7.20
2023-04-16T23:54:51.548Z,7.20
2023-04-16T23:59:56.404Z,7.20
